sensor_id;sensor_type;location;lat;lon;timestamp;temperature;humidity
51029;DHT22;37054;52.054;8.600;2022-11-12T00:01:58;9.50;53.50
51029;DHT22;37054;52.054;8.600;2022-11-12T00:04:24;9.50;53.90
51029;DHT22;37054;52.054;8.600;2022-11-12T00:06:50;9.50;54.10
51029;DHT22;37054;52.054;8.600;2022-11-12T00:09:15;9.60;54.20
51029;DHT22;37054;52.054;8.600;2022-11-12T00:11:41;9.60;53.90
51029;DHT22;37054;52.054;8.600;2022-11-12T00:14:07;9.60;54.10
51029;DHT22;37054;52.054;8.600;2022-11-12T00:16:32;9.50;53.90
51029;DHT22;37054;52.054;8.600;2022-11-12T00:18:58;9.50;53.50
51029;DHT22;37054;52.054;8.600;2022-11-12T00:21:24;9.40;53.00
51029;DHT22;37054;52.054;8.600;2022-11-12T00:23:49;9.20;52.70
51029;DHT22;37054;52.054;8.600;2022-11-12T00:26:15;9.10;52.60
51029;DHT22;37054;52.054;8.600;2022-11-12T00:28:40;9.10;52.80
51029;DHT22;37054;52.054;8.600;2022-11-12T00:31:09;9.00;52.90
51029;DHT22;37054;52.054;8.600;2022-11-12T00:33:38;8.90;52.80
51029;DHT22;37054;52.054;8.600;2022-11-12T00:36:03;8.80;52.90
51029;DHT22;37054;52.054;8.600;2022-11-12T00:38:29;8.80;53.00
51029;DHT22;37054;52.054;8.600;2022-11-12T00:40:57;8.80;53.10
51029;DHT22;37054;52.054;8.600;2022-11-12T00:43:23;8.70;53.30
51029;DHT22;37054;52.054;8.600;2022-11-12T00:45:52;8.70;53.20
51029;DHT22;37054;52.054;8.600;2022-11-12T00:48:17;8.70;53.00
51029;DHT22;37054;52.054;8.600;2022-11-12T00:50:46;8.70;53.10
51029;DHT22;37054;52.054;8.600;2022-11-12T00:53:11;8.60;53.00
51029;DHT22;37054;52.054;8.600;2022-11-12T00:55:37;8.60;53.00
51029;DHT22;37054;52.054;8.600;2022-11-12T00:58:03;8.60;52.90
51029;DHT22;37054;52.054;8.600;2022-11-12T01:00:28;8.50;52.80
51029;DHT22;37054;52.054;8.600;2022-11-12T01:02:57;8.50;52.70
51029;DHT22;37054;52.054;8.600;2022-11-12T01:05:25;8.50;52.70
51029;DHT22;37054;52.054;8.600;2022-11-12T01:07:54;8.40;52.80
51029;DHT22;37054;52.054;8.600;2022-11-12T01:10:20;8.40;52.70
51029;DHT22;37054;52.054;8.600;2022-11-12T01:12:45;8.40;52.60
51029;DHT22;37054;52.054;8.600;2022-11-12T01:15:11;8.40;52.60
51029;DHT22;37054;52.054;8.600;2022-11-12T01:17:36;8.30;52.50
51029;DHT22;37054;52.054;8.600;2022-11-12T01:20:02;8.20;52.50
51029;DHT22;37054;52.054;8.600;2022-11-12T01:22:28;8.20;52.50
51029;DHT22;37054;52.054;8.600;2022-11-12T01:24:54;8.20;52.50
51029;DHT22;37054;52.054;8.600;2022-11-12T01:27:20;8.10;52.50
51029;DHT22;37054;52.054;8.600;2022-11-12T01:29:45;8.10;52.40
51029;DHT22;37054;52.054;8.600;2022-11-12T01:32:11;8.00;52.40
51029;DHT22;37054;52.054;8.600;2022-11-12T01:34:37;8.00;52.40
51029;DHT22;37054;52.054;8.600;2022-11-12T01:37:02;8.00;52.40
51029;DHT22;37054;52.054;8.600;2022-11-12T01:39:28;7.90;52.40
51029;DHT22;37054;52.054;8.600;2022-11-12T01:41:53;7.90;52.40
51029;DHT22;37054;52.054;8.600;2022-11-12T01:44:20;7.90;52.40
51029;DHT22;37054;52.054;8.600;2022-11-12T01:49:26;7.80;52.50
51029;DHT22;37054;52.054;8.600;2022-11-12T01:51:53;7.80;52.50
51029;DHT22;37054;52.054;8.600;2022-11-12T01:54:20;7.70;52.50
51029;DHT22;37054;52.054;8.600;2022-11-12T01:56:46;7.70;52.70
51029;DHT22;37054;52.054;8.600;2022-11-12T01:59:19;7.70;52.80
51029;DHT22;37054;52.054;8.600;2022-11-12T02:01:46;7.70;52.80
51029;DHT22;37054;52.054;8.600;2022-11-12T02:04:12;7.60;53.30
51029;DHT22;37054;52.054;8.600;2022-11-12T02:06:38;7.60;53.30
51029;DHT22;37054;52.054;8.600;2022-11-12T02:09:04;7.60;53.10
51029;DHT22;37054;52.054;8.600;2022-11-12T02:11:30;7.50;53.20
51029;DHT22;37054;52.054;8.600;2022-11-12T02:13:55;7.50;53.40
51029;DHT22;37054;52.054;8.600;2022-11-12T02:16:31;7.50;53.30
51029;DHT22;37054;52.054;8.600;2022-11-12T02:18:57;7.50;53.20
51029;DHT22;37054;52.054;8.600;2022-11-12T02:21:24;7.40;53.50
51029;DHT22;37054;52.054;8.600;2022-11-12T02:24:05;7.50;53.60
51029;DHT22;37054;52.054;8.600;2022-11-12T02:26:48;7.40;53.40
51029;DHT22;37054;52.054;8.600;2022-11-12T02:29:15;7.40;53.30
51029;DHT22;37054;52.054;8.600;2022-11-12T02:31:41;7.40;53.30
51029;DHT22;37054;52.054;8.600;2022-11-12T02:34:06;7.40;53.20
51029;DHT22;37054;52.054;8.600;2022-11-12T02:36:32;7.40;53.20
51029;DHT22;37054;52.054;8.600;2022-11-12T02:38:58;7.40;53.20
51029;DHT22;37054;52.054;8.600;2022-11-12T02:41:24;7.50;53.10
51029;DHT22;37054;52.054;8.600;2022-11-12T02:43:50;7.40;53.10
51029;DHT22;37054;52.054;8.600;2022-11-12T02:46:15;7.40;53.00
51029;DHT22;37054;52.054;8.600;2022-11-12T02:48:41;7.40;53.00
51029;DHT22;37054;52.054;8.600;2022-11-12T02:51:07;7.40;53.10
51029;DHT22;37054;52.054;8.600;2022-11-12T02:53:33;7.30;53.10
51029;DHT22;37054;52.054;8.600;2022-11-12T02:55:59;7.30;53.00
51029;DHT22;37054;52.054;8.600;2022-11-12T02:58:25;7.30;52.90
51029;DHT22;37054;52.054;8.600;2022-11-12T03:00:51;7.30;53.00
51029;DHT22;37054;52.054;8.600;2022-11-12T03:03:16;7.30;52.90
51029;DHT22;37054;52.054;8.600;2022-11-12T03:05:42;7.30;52.90
51029;DHT22;37054;52.054;8.600;2022-11-12T03:08:08;7.20;53.10
51029;DHT22;37054;52.054;8.600;2022-11-12T03:10:37;7.30;53.20
51029;DHT22;37054;52.054;8.600;2022-11-12T03:13:03;7.30;53.10
51029;DHT22;37054;52.054;8.600;2022-11-12T03:15:29;7.30;53.10
51029;DHT22;37054;52.054;8.600;2022-11-12T03:17:56;7.20;53.00
51029;DHT22;37054;52.054;8.600;2022-11-12T03:20:21;7.20;52.90
51029;DHT22;37054;52.054;8.600;2022-11-12T03:23:20;7.20;53.00
51029;DHT22;37054;52.054;8.600;2022-11-12T03:25:39;7.20;52.90
51029;DHT22;37054;52.054;8.600;2022-11-12T03:28:06;7.10;53.00
51029;DHT22;37054;52.054;8.600;2022-11-12T03:30:33;7.20;53.00
51029;DHT22;37054;52.054;8.600;2022-11-12T03:32:59;7.10;53.00
51029;DHT22;37054;52.054;8.600;2022-11-12T03:35:25;7.10;53.00
51029;DHT22;37054;52.054;8.600;2022-11-12T03:37:51;7.00;53.10
51029;DHT22;37054;52.054;8.600;2022-11-12T03:40:16;7.10;53.10
51029;DHT22;37054;52.054;8.600;2022-11-12T03:42:46;7.10;53.30
51029;DHT22;37054;52.054;8.600;2022-11-12T03:45:12;7.10;53.30
51029;DHT22;37054;52.054;8.600;2022-11-12T03:47:41;7.10;53.30
51029;DHT22;37054;52.054;8.600;2022-11-12T03:50:08;7.10;53.50
51029;DHT22;37054;52.054;8.600;2022-11-12T03:52:34;7.10;53.60
51029;DHT22;37054;52.054;8.600;2022-11-12T03:55:00;7.20;53.70
51029;DHT22;37054;52.054;8.600;2022-11-12T03:57:25;7.20;53.60
51029;DHT22;37054;52.054;8.600;2022-11-12T03:59:51;7.20;53.50
51029;DHT22;37054;52.054;8.600;2022-11-12T04:02:16;7.20;53.40
51029;DHT22;37054;52.054;8.600;2022-11-12T04:04:42;7.20;53.60
51029;DHT22;37054;52.054;8.600;2022-11-12T04:07:37;7.20;53.60
51029;DHT22;37054;52.054;8.600;2022-11-12T04:10:21;7.20;53.50
51029;DHT22;37054;52.054;8.600;2022-11-12T04:12:46;7.10;53.60
51029;DHT22;37054;52.054;8.600;2022-11-12T04:15:31;7.10;53.50
51029;DHT22;37054;52.054;8.600;2022-11-12T04:17:56;7.00;53.60
51029;DHT22;37054;52.054;8.600;2022-11-12T04:20:41;7.00;53.60
51029;DHT22;37054;52.054;8.600;2022-11-12T04:23:25;6.90;53.80
51029;DHT22;37054;52.054;8.600;2022-11-12T04:25:50;6.80;54.00
51029;DHT22;37054;52.054;8.600;2022-11-12T04:28:34;6.80;54.10
51029;DHT22;37054;52.054;8.600;2022-11-12T04:31:01;6.80;54.20
51029;DHT22;37054;52.054;8.600;2022-11-12T04:33:26;6.80;54.50
51029;DHT22;37054;52.054;8.600;2022-11-12T04:35:52;6.70;54.70
51029;DHT22;37054;52.054;8.600;2022-11-12T04:38:17;6.70;54.80
51029;DHT22;37054;52.054;8.600;2022-11-12T04:40:43;6.70;54.90
51029;DHT22;37054;52.054;8.600;2022-11-12T04:43:27;6.70;55.20
51029;DHT22;37054;52.054;8.600;2022-11-12T04:46:11;6.70;55.70
51029;DHT22;37054;52.054;8.600;2022-11-12T04:48:37;6.70;56.00
51029;DHT22;37054;52.054;8.600;2022-11-12T04:51:03;6.80;55.90
51029;DHT22;37054;52.054;8.600;2022-11-12T04:53:52;6.80;56.20
51029;DHT22;37054;52.054;8.600;2022-11-12T04:56:18;7.00;56.50
51029;DHT22;37054;52.054;8.600;2022-11-12T04:58:43;7.10;56.70
51029;DHT22;37054;52.054;8.600;2022-11-12T05:01:09;7.20;56.70
51029;DHT22;37054;52.054;8.600;2022-11-12T05:03:35;7.30;56.70
51029;DHT22;37054;52.054;8.600;2022-11-12T05:06:04;7.40;56.80
51029;DHT22;37054;52.054;8.600;2022-11-12T05:08:50;7.40;57.00
51029;DHT22;37054;52.054;8.600;2022-11-12T05:11:15;7.50;57.10
51029;DHT22;37054;52.054;8.600;2022-11-12T05:13:41;7.50;56.90
51029;DHT22;37054;52.054;8.600;2022-11-12T05:16:06;7.50;56.60
51029;DHT22;37054;52.054;8.600;2022-11-12T05:18:32;7.40;56.30
51029;DHT22;37054;52.054;8.600;2022-11-12T05:20:58;7.30;56.10
51029;DHT22;37054;52.054;8.600;2022-11-12T05:23:43;7.30;56.00
51029;DHT22;37054;52.054;8.600;2022-11-12T05:26:09;7.20;56.00
51029;DHT22;37054;52.054;8.600;2022-11-12T05:28:35;7.20;56.00
51029;DHT22;37054;52.054;8.600;2022-11-12T05:31:00;7.10;56.10
51029;DHT22;37054;52.054;8.600;2022-11-12T05:33:26;7.10;56.30
51029;DHT22;37054;52.054;8.600;2022-11-12T05:35:54;7.10;56.40
51029;DHT22;37054;52.054;8.600;2022-11-12T05:38:22;7.10;56.50
51029;DHT22;37054;52.054;8.600;2022-11-12T05:40:47;7.10;56.40
51029;DHT22;37054;52.054;8.600;2022-11-12T05:43:13;7.00;56.40
51029;DHT22;37054;52.054;8.600;2022-11-12T05:45:42;7.00;56.40
51029;DHT22;37054;52.054;8.600;2022-11-12T05:48:08;7.00;56.50
51029;DHT22;37054;52.054;8.600;2022-11-12T05:50:34;7.00;56.40
51029;DHT22;37054;52.054;8.600;2022-11-12T05:53:00;6.90;56.40
51029;DHT22;37054;52.054;8.600;2022-11-12T05:55:25;6.90;56.30
51029;DHT22;37054;52.054;8.600;2022-11-12T05:57:51;6.80;56.10
51029;DHT22;37054;52.054;8.600;2022-11-12T06:00:20;6.80;56.20
51029;DHT22;37054;52.054;8.600;2022-11-12T06:02:46;6.70;56.10
51029;DHT22;37054;52.054;8.600;2022-11-12T06:05:12;6.70;56.00
51029;DHT22;37054;52.054;8.600;2022-11-12T06:07:37;6.70;56.00
51029;DHT22;37054;52.054;8.600;2022-11-12T06:10:05;6.70;56.20
51029;DHT22;37054;52.054;8.600;2022-11-12T06:12:30;6.70;56.50
51029;DHT22;37054;52.054;8.600;2022-11-12T06:14:56;6.70;56.70
51029;DHT22;37054;52.054;8.600;2022-11-12T06:17:22;6.70;57.10
51029;DHT22;37054;52.054;8.600;2022-11-12T06:19:47;6.80;57.40
51029;DHT22;37054;52.054;8.600;2022-11-12T06:22:13;6.90;57.70
51029;DHT22;37054;52.054;8.600;2022-11-12T06:24:39;7.00;57.80
51029;DHT22;37054;52.054;8.600;2022-11-12T06:27:05;7.10;57.80
51029;DHT22;37054;52.054;8.600;2022-11-12T06:29:31;7.10;57.80
51029;DHT22;37054;52.054;8.600;2022-11-12T06:31:56;7.20;57.80
51029;DHT22;37054;52.054;8.600;2022-11-12T06:34:22;7.20;57.80
51029;DHT22;37054;52.054;8.600;2022-11-12T06:36:48;7.20;57.90
51029;DHT22;37054;52.054;8.600;2022-11-12T06:39:13;7.20;57.90
51029;DHT22;37054;52.054;8.600;2022-11-12T06:41:39;7.20;57.90
51029;DHT22;37054;52.054;8.600;2022-11-12T06:44:04;7.30;57.90
51029;DHT22;37054;52.054;8.600;2022-11-12T06:46:30;7.30;58.00
51029;DHT22;37054;52.054;8.600;2022-11-12T06:48:56;7.30;58.10
51029;DHT22;37054;52.054;8.600;2022-11-12T06:51:22;7.30;58.10
51029;DHT22;37054;52.054;8.600;2022-11-12T06:53:47;7.40;58.50
51029;DHT22;37054;52.054;8.600;2022-11-12T06:56:13;7.50;59.00
51029;DHT22;37054;52.054;8.600;2022-11-12T06:58:39;7.70;59.60
51029;DHT22;37054;52.054;8.600;2022-11-12T07:01:12;7.80;59.90
51029;DHT22;37054;52.054;8.600;2022-11-12T07:03:37;8.00;59.90
51029;DHT22;37054;52.054;8.600;2022-11-12T07:06:04;8.10;59.80
51029;DHT22;37054;52.054;8.600;2022-11-12T07:08:30;8.20;59.60
51029;DHT22;37054;52.054;8.600;2022-11-12T07:10:55;8.20;59.40
51029;DHT22;37054;52.054;8.600;2022-11-12T07:13:24;8.30;59.40
51029;DHT22;37054;52.054;8.600;2022-11-12T07:15:49;8.30;59.30
51029;DHT22;37054;52.054;8.600;2022-11-12T07:18:15;8.30;59.30
51029;DHT22;37054;52.054;8.600;2022-11-12T07:20:40;8.40;59.30
51029;DHT22;37054;52.054;8.600;2022-11-12T07:23:06;8.40;59.40
51029;DHT22;37054;52.054;8.600;2022-11-12T07:25:31;8.50;59.50
51029;DHT22;37054;52.054;8.600;2022-11-12T07:27:57;8.50;59.50
51029;DHT22;37054;52.054;8.600;2022-11-12T07:30:22;8.60;59.70
51029;DHT22;37054;52.054;8.600;2022-11-12T07:32:48;8.70;59.70
51029;DHT22;37054;52.054;8.600;2022-11-12T07:35:13;8.70;59.60
51029;DHT22;37054;52.054;8.600;2022-11-12T07:37:39;8.70;59.70
51029;DHT22;37054;52.054;8.600;2022-11-12T07:40:04;8.80;59.70
51029;DHT22;37054;52.054;8.600;2022-11-12T07:42:34;8.80;59.70
51029;DHT22;37054;52.054;8.600;2022-11-12T07:45:00;8.80;59.80
51029;DHT22;37054;52.054;8.600;2022-11-12T07:47:26;8.80;59.80
51029;DHT22;37054;52.054;8.600;2022-11-12T07:49:51;8.90;59.80
51029;DHT22;37054;52.054;8.600;2022-11-12T07:52:17;8.90;59.90
51029;DHT22;37054;52.054;8.600;2022-11-12T07:54:42;9.00;60.00
51029;DHT22;37054;52.054;8.600;2022-11-12T07:57:08;9.10;60.10
51029;DHT22;37054;52.054;8.600;2022-11-12T07:59:33;9.20;60.20
51029;DHT22;37054;52.054;8.600;2022-11-12T08:01:59;9.20;60.40
51029;DHT22;37054;52.054;8.600;2022-11-12T08:04:24;9.30;60.70
51029;DHT22;37054;52.054;8.600;2022-11-12T08:06:50;9.40;61.00
51029;DHT22;37054;52.054;8.600;2022-11-12T08:09:15;9.60;61.40
51029;DHT22;37054;52.054;8.600;2022-11-12T08:11:41;9.80;61.90
51029;DHT22;37054;52.054;8.600;2022-11-12T08:14:06;10.10;62.40
51029;DHT22;37054;52.054;8.600;2022-11-12T08:16:32;10.40;63.10
51029;DHT22;37054;52.054;8.600;2022-11-12T08:18:58;10.90;63.90
51029;DHT22;37054;52.054;8.600;2022-11-12T08:21:24;11.40;64.20
51029;DHT22;37054;52.054;8.600;2022-11-12T08:23:50;11.80;64.20
51029;DHT22;37054;52.054;8.600;2022-11-12T08:26:17;12.40;64.10
51029;DHT22;37054;52.054;8.600;2022-11-12T08:28:42;12.90;63.90
51029;DHT22;37054;52.054;8.600;2022-11-12T08:31:09;13.40;63.20
51029;DHT22;37054;52.054;8.600;2022-11-12T08:33:35;13.80;62.80
51029;DHT22;37054;52.054;8.600;2022-11-12T08:36:02;14.20;62.60
51029;DHT22;37054;52.054;8.600;2022-11-12T08:38:28;14.60;62.60
51029;DHT22;37054;52.054;8.600;2022-11-12T08:40:53;15.00;62.50
51029;DHT22;37054;52.054;8.600;2022-11-12T08:43:19;15.40;62.20
51029;DHT22;37054;52.054;8.600;2022-11-12T08:45:44;15.80;61.90
51029;DHT22;37054;52.054;8.600;2022-11-12T08:48:11;16.10;61.90
51029;DHT22;37054;52.054;8.600;2022-11-12T08:50:39;16.40;61.80
51029;DHT22;37054;52.054;8.600;2022-11-12T08:53:05;16.70;62.10
51029;DHT22;37054;52.054;8.600;2022-11-12T08:55:32;17.00;62.00
51029;DHT22;37054;52.054;8.600;2022-11-12T08:57:57;17.30;62.00
51029;DHT22;37054;52.054;8.600;2022-11-12T09:00:26;17.70;61.60
51029;DHT22;37054;52.054;8.600;2022-11-12T09:02:52;18.00;61.20
51029;DHT22;37054;52.054;8.600;2022-11-12T09:05:18;18.30;60.90
51029;DHT22;37054;52.054;8.600;2022-11-12T09:07:43;18.50;60.60
51029;DHT22;37054;52.054;8.600;2022-11-12T09:10:09;18.60;59.60
51029;DHT22;37054;52.054;8.600;2022-11-12T09:12:35;18.50;58.90
51029;DHT22;37054;52.054;8.600;2022-11-12T09:15:01;18.30;58.70
51029;DHT22;37054;52.054;8.600;2022-11-12T09:17:27;18.20;58.90
51029;DHT22;37054;52.054;8.600;2022-11-12T09:19:55;18.20;59.50
51029;DHT22;37054;52.054;8.600;2022-11-12T09:22:20;18.10;59.30
51029;DHT22;37054;52.054;8.600;2022-11-12T09:24:46;17.90;58.70
51029;DHT22;37054;52.054;8.600;2022-11-12T09:27:12;17.70;58.20
51029;DHT22;37054;52.054;8.600;2022-11-12T09:29:37;17.50;57.90
51029;DHT22;37054;52.054;8.600;2022-11-12T09:32:03;17.20;57.80
51029;DHT22;37054;52.054;8.600;2022-11-12T09:34:29;17.00;57.60
51029;DHT22;37054;52.054;8.600;2022-11-12T09:36:54;16.80;57.80
51029;DHT22;37054;52.054;8.600;2022-11-12T09:39:20;16.60;57.80
51029;DHT22;37054;52.054;8.600;2022-11-12T09:41:45;16.40;58.10
51029;DHT22;37054;52.054;8.600;2022-11-12T09:44:13;16.30;58.50
51029;DHT22;37054;52.054;8.600;2022-11-12T09:46:48;16.20;58.80
51029;DHT22;37054;52.054;8.600;2022-11-12T09:51:54;16.10;59.80
51029;DHT22;37054;52.054;8.600;2022-11-12T09:54:22;16.20;60.60
51029;DHT22;37054;52.054;8.600;2022-11-12T09:56:48;16.30;61.00
51029;DHT22;37054;52.054;8.600;2022-11-12T09:59:14;16.50;61.30
51029;DHT22;37054;52.054;8.600;2022-11-12T10:01:42;16.70;61.30
51029;DHT22;37054;52.054;8.600;2022-11-12T10:07:05;17.10;61.00
51029;DHT22;37054;52.054;8.600;2022-11-12T10:09:36;17.20;60.90
51029;DHT22;37054;52.054;8.600;2022-11-12T10:15:28;17.50;60.50
51029;DHT22;37054;52.054;8.600;2022-11-12T10:23:44;17.90;60.50
51029;DHT22;37054;52.054;8.600;2022-11-12T10:26:11;18.20;60.60
51029;DHT22;37054;52.054;8.600;2022-11-12T10:28:42;18.50;60.70
51029;DHT22;37054;52.054;8.600;2022-11-12T10:31:14;18.70;60.00
51029;DHT22;37054;52.054;8.600;2022-11-12T10:33:40;19.00;59.00
51029;DHT22;37054;52.054;8.600;2022-11-12T10:38:47;19.00;57.00
51029;DHT22;37054;52.054;8.600;2022-11-12T10:41:19;18.90;57.10
51029;DHT22;37054;52.054;8.600;2022-11-12T10:43:54;18.80;56.60
51029;DHT22;37054;52.054;8.600;2022-11-12T10:46:21;18.80;56.90
51029;DHT22;37054;52.054;8.600;2022-11-12T10:48:55;18.80;56.90
51029;DHT22;37054;52.054;8.600;2022-11-12T10:51:25;18.80;56.60
51029;DHT22;37054;52.054;8.600;2022-11-12T10:53:52;18.80;57.20
51029;DHT22;37054;52.054;8.600;2022-11-12T10:56:29;18.80;57.80
51029;DHT22;37054;52.054;8.600;2022-11-12T11:01:53;18.80;57.30
51029;DHT22;37054;52.054;8.600;2022-11-12T11:06:47;18.70;56.80
51029;DHT22;37054;52.054;8.600;2022-11-12T11:09:15;18.70;56.40
51029;DHT22;37054;52.054;8.600;2022-11-12T11:11:47;18.70;56.90
51029;DHT22;37054;52.054;8.600;2022-11-12T11:14:23;18.80;57.20
51029;DHT22;37054;52.054;8.600;2022-11-12T11:16:53;18.90;57.70
51029;DHT22;37054;52.054;8.600;2022-11-12T11:19:19;19.00;56.90
51029;DHT22;37054;52.054;8.600;2022-11-12T11:24:23;19.30;57.40
51029;DHT22;37054;52.054;8.600;2022-11-12T11:26:53;19.50;57.30
51029;DHT22;37054;52.054;8.600;2022-11-12T11:32:01;19.70;54.70
51029;DHT22;37054;52.054;8.600;2022-11-12T11:37:05;19.80;54.00
51029;DHT22;37054;52.054;8.600;2022-11-12T11:42:06;20.20;54.70
51029;DHT22;37054;52.054;8.600;2022-11-12T11:44:38;20.50;54.50
51029;DHT22;37054;52.054;8.600;2022-11-12T11:47:18;20.70;53.90
51029;DHT22;37054;52.054;8.600;2022-11-12T12:00:15;20.90;49.20
51029;DHT22;37054;52.054;8.600;2022-11-12T12:07:40;20.70;48.70
51029;DHT22;37054;52.054;8.600;2022-11-12T12:12:45;20.40;49.50
51029;DHT22;37054;52.054;8.600;2022-11-12T12:15:32;20.30;49.40
51029;DHT22;37054;52.054;8.600;2022-11-12T12:21:04;20.10;50.30
51029;DHT22;37054;52.054;8.600;2022-11-12T12:23:32;20.00;51.20
51029;DHT22;37054;52.054;8.600;2022-11-12T12:26:00;20.00;49.90
51029;DHT22;37054;52.054;8.600;2022-11-12T12:28:32;19.90;51.30
51029;DHT22;37054;52.054;8.600;2022-11-12T12:31:00;20.00;52.20
51029;DHT22;37054;52.054;8.600;2022-11-12T12:36:04;19.90;51.30
51029;DHT22;37054;52.054;8.600;2022-11-12T12:38:31;19.80;51.80
51029;DHT22;37054;52.054;8.600;2022-11-12T12:41:10;19.80;51.50
51029;DHT22;37054;52.054;8.600;2022-11-12T12:43:44;19.80;50.70
51029;DHT22;37054;52.054;8.600;2022-11-12T12:46:12;19.80;51.70
51029;DHT22;37054;52.054;8.600;2022-11-12T12:48:39;19.80;51.40
51029;DHT22;37054;52.054;8.600;2022-11-12T12:51:06;19.70;50.80
51029;DHT22;37054;52.054;8.600;2022-11-12T12:53:33;19.70;50.90
51029;DHT22;37054;52.054;8.600;2022-11-12T12:56:00;19.70;50.90
51029;DHT22;37054;52.054;8.600;2022-11-12T12:58:30;19.70;51.10
51029;DHT22;37054;52.054;8.600;2022-11-12T13:01:01;19.70;51.40
51029;DHT22;37054;52.054;8.600;2022-11-12T13:08:50;19.70;51.60
51029;DHT22;37054;52.054;8.600;2022-11-12T13:16:57;19.50;51.40
51029;DHT22;37054;52.054;8.600;2022-11-12T13:19:25;19.50;51.10
51029;DHT22;37054;52.054;8.600;2022-11-12T13:22:18;19.50;51.00
51029;DHT22;37054;52.054;8.600;2022-11-12T13:30:06;19.40;51.10
51029;DHT22;37054;52.054;8.600;2022-11-12T13:35:33;19.40;51.10
51029;DHT22;37054;52.054;8.600;2022-11-12T13:38:09;19.50;51.10
51029;DHT22;37054;52.054;8.600;2022-11-12T13:40:45;19.50;51.20
51029;DHT22;37054;52.054;8.600;2022-11-12T13:45:38;19.50;50.40
51029;DHT22;37054;52.054;8.600;2022-11-12T13:48:05;19.50;49.50
51029;DHT22;37054;52.054;8.600;2022-11-12T13:50:31;19.50;49.70
51029;DHT22;37054;52.054;8.600;2022-11-12T13:52:57;19.50;49.70
51029;DHT22;37054;52.054;8.600;2022-11-12T13:55:23;19.40;49.80
51029;DHT22;37054;52.054;8.600;2022-11-12T13:57:52;19.40;49.60
51029;DHT22;37054;52.054;8.600;2022-11-12T14:02:46;19.30;49.80
51029;DHT22;37054;52.054;8.600;2022-11-12T14:05:15;19.30;49.80
51029;DHT22;37054;52.054;8.600;2022-11-12T14:07:48;19.30;49.70
51029;DHT22;37054;52.054;8.600;2022-11-12T14:10:24;19.30;49.80
51029;DHT22;37054;52.054;8.600;2022-11-12T14:15:52;19.20;50.00
51029;DHT22;37054;52.054;8.600;2022-11-12T14:21:04;19.10;50.20
51029;DHT22;37054;52.054;8.600;2022-11-12T14:23:31;19.00;50.20
51029;DHT22;37054;52.054;8.600;2022-11-12T14:25:56;19.00;50.10
51029;DHT22;37054;52.054;8.600;2022-11-12T14:28:30;18.90;50.00
51029;DHT22;37054;52.054;8.600;2022-11-12T14:30:56;18.80;50.00
51029;DHT22;37054;52.054;8.600;2022-11-12T14:33:25;18.80;50.10
51029;DHT22;37054;52.054;8.600;2022-11-12T14:35:51;18.70;50.40
51029;DHT22;37054;52.054;8.600;2022-11-12T14:38:22;18.70;50.40
51029;DHT22;37054;52.054;8.600;2022-11-12T14:40:49;18.70;50.50
51029;DHT22;37054;52.054;8.600;2022-11-12T14:45:47;18.70;50.60
51029;DHT22;37054;52.054;8.600;2022-11-12T14:48:13;18.60;50.60
51029;DHT22;37054;52.054;8.600;2022-11-12T14:50:39;18.60;50.60
51029;DHT22;37054;52.054;8.600;2022-11-12T14:53:11;18.50;50.40
51029;DHT22;37054;52.054;8.600;2022-11-12T14:55:38;18.40;50.30
51029;DHT22;37054;52.054;8.600;2022-11-12T14:58:05;18.30;50.40
51029;DHT22;37054;52.054;8.600;2022-11-12T15:00:39;18.30;50.50
51029;DHT22;37054;52.054;8.600;2022-11-12T15:03:06;18.20;50.60
51029;DHT22;37054;52.054;8.600;2022-11-12T15:05:31;18.10;50.60
51029;DHT22;37054;52.054;8.600;2022-11-12T15:08:00;18.10;50.70
51029;DHT22;37054;52.054;8.600;2022-11-12T15:13:08;17.80;50.60
51029;DHT22;37054;52.054;8.600;2022-11-12T15:15:36;17.70;50.80
51029;DHT22;37054;52.054;8.600;2022-11-12T15:18:03;17.60;50.90
51029;DHT22;37054;52.054;8.600;2022-11-12T15:20:30;17.50;51.00
51029;DHT22;37054;52.054;8.600;2022-11-12T15:22:55;17.40;51.10
51029;DHT22;37054;52.054;8.600;2022-11-12T15:25:25;17.30;51.10
51029;DHT22;37054;52.054;8.600;2022-11-12T15:27:51;17.30;51.20
51029;DHT22;37054;52.054;8.600;2022-11-12T15:32:42;17.10;51.30
51029;DHT22;37054;52.054;8.600;2022-11-12T15:37:49;16.80;51.40
51029;DHT22;37054;52.054;8.600;2022-11-12T15:40:16;16.70;51.60
51029;DHT22;37054;52.054;8.600;2022-11-12T15:42:42;16.70;51.60
51029;DHT22;37054;52.054;8.600;2022-11-12T15:45:16;16.50;51.70
51029;DHT22;37054;52.054;8.600;2022-11-12T15:47:42;16.40;51.70
51029;DHT22;37054;52.054;8.600;2022-11-12T15:50:15;16.30;51.80
51029;DHT22;37054;52.054;8.600;2022-11-12T15:52:41;16.10;51.90
51029;DHT22;37054;52.054;8.600;2022-11-12T15:55:07;16.00;51.90
51029;DHT22;37054;52.054;8.600;2022-11-12T15:57:36;15.90;52.00
51029;DHT22;37054;52.054;8.600;2022-11-12T16:00:08;15.80;52.10
51029;DHT22;37054;52.054;8.600;2022-11-12T16:02:37;15.70;52.10
51029;DHT22;37054;52.054;8.600;2022-11-12T16:05:03;15.50;52.20
51029;DHT22;37054;52.054;8.600;2022-11-12T16:07:29;15.40;52.30
51029;DHT22;37054;52.054;8.600;2022-11-12T16:09:55;15.30;52.40
51029;DHT22;37054;52.054;8.600;2022-11-12T16:12:21;15.20;52.50
51029;DHT22;37054;52.054;8.600;2022-11-12T16:14:46;15.10;52.60
51029;DHT22;37054;52.054;8.600;2022-11-12T16:17:13;15.00;52.60
51029;DHT22;37054;52.054;8.600;2022-11-12T16:19:39;14.80;52.70
51029;DHT22;37054;52.054;8.600;2022-11-12T16:22:05;14.80;52.70
51029;DHT22;37054;52.054;8.600;2022-11-12T16:24:42;14.70;52.70
51029;DHT22;37054;52.054;8.600;2022-11-12T16:27:12;14.50;52.80
51029;DHT22;37054;52.054;8.600;2022-11-12T16:29:38;14.40;52.90
51029;DHT22;37054;52.054;8.600;2022-11-12T16:32:04;14.30;52.90
51029;DHT22;37054;52.054;8.600;2022-11-12T16:34:29;14.20;52.90
51029;DHT22;37054;52.054;8.600;2022-11-12T16:36:55;14.10;53.00
51029;DHT22;37054;52.054;8.600;2022-11-12T16:39:21;14.00;53.00
51029;DHT22;37054;52.054;8.600;2022-11-12T16:41:47;13.90;53.20
51029;DHT22;37054;52.054;8.600;2022-11-12T16:44:13;13.80;53.50
51029;DHT22;37054;52.054;8.600;2022-11-12T16:46:40;13.70;53.60
51029;DHT22;37054;52.054;8.600;2022-11-12T16:49:12;13.60;53.60
51029;DHT22;37054;52.054;8.600;2022-11-12T16:51:38;13.60;53.70
51029;DHT22;37054;52.054;8.600;2022-11-12T16:54:04;13.50;53.80
51029;DHT22;37054;52.054;8.600;2022-11-12T16:56:30;13.40;54.00
51029;DHT22;37054;52.054;8.600;2022-11-12T16:58:56;13.30;53.90
51029;DHT22;37054;52.054;8.600;2022-11-12T17:03:51;13.30;53.90
51029;DHT22;37054;52.054;8.600;2022-11-12T17:06:17;13.20;53.90
51029;DHT22;37054;52.054;8.600;2022-11-12T17:08:43;13.10;53.90
51029;DHT22;37054;52.054;8.600;2022-11-12T17:11:12;13.00;54.00
51029;DHT22;37054;52.054;8.600;2022-11-12T17:13:38;13.00;54.00
51029;DHT22;37054;52.054;8.600;2022-11-12T17:16:05;12.90;54.00
51029;DHT22;37054;52.054;8.600;2022-11-12T17:18:31;12.80;53.90
51029;DHT22;37054;52.054;8.600;2022-11-12T17:21:04;12.70;53.90
51029;DHT22;37054;52.054;8.600;2022-11-12T17:23:30;12.60;53.90
51029;DHT22;37054;52.054;8.600;2022-11-12T17:25:59;12.50;54.00